Quail Heights, Florida
Current Conditions -  °F | °C
As of 6:53 PM on Wednesday 26 Nov 2014 (Local Time) from KTMB Reporting Station
Broken Clouds Broken Clouds  
Wind Chill: 63°   Ceiling: 7000
Heat Index: 63°   Visibility: 10mi
Dew Point: 49°   Wind: 14mph
Humidity: 60%   Direction: 360°N
Pressure: 30.15"   Gusts: NA
Location:  25.6122°N, 80.3488°W
Report Text: KTMB 262353Z 36012KT 10SM SCT055 BKN070 BKN095 17/09 A3015 RMK AO2 SLP210 T01720094 10222 20167 53016
Loading
Personal Weather Stations






























Interactive Weather Map New forecast layout! Learn more

10-Day Weather Forecast

Advertisements
Track Severe Weather on mobile